createdAt,value
2023-03-29T00:00:21.897Z,28.36
2023-03-29T00:01:35.910Z,30.34
2023-03-29T00:02:23.006Z,30.46
2023-03-29T00:03:21.927Z,29.85
2023-03-29T00:04:21.925Z,26.77
2023-03-29T00:05:21.902Z,29.42
2023-03-29T00:06:21.877Z,30.58
2023-03-29T00:07:22.485Z,25.33
2023-03-29T00:08:22.170Z,27.17
2023-03-29T00:09:22.143Z,30.18
2023-03-29T00:10:22.143Z,29.10
2023-03-29T00:11:22.127Z,28.62
2023-03-29T00:12:22.151Z,27.06
2023-03-29T00:13:22.128Z,25.46
2023-03-29T00:14:22.115Z,27.93
2023-03-29T00:15:22.124Z,29.54
2023-03-29T00:16:22.165Z,30.68
2023-03-29T00:17:22.104Z,25.91
2023-03-29T00:18:22.108Z,27.01
2023-03-29T00:19:22.086Z,27.68
2023-03-29T00:20:22.081Z,27.25
2023-03-29T00:21:22.084Z,25.90
2023-03-29T00:22:22.050Z,31.70
2023-03-29T00:23:22.075Z,31.28
2023-03-29T00:24:22.099Z,25.87
2023-03-29T00:25:22.117Z,30.29
2023-03-29T00:26:22.114Z,30.52
2023-03-29T00:27:22.121Z,32.24
2023-03-29T00:28:22.169Z,29.74
2023-03-29T00:29:22.164Z,26.62
2023-03-29T00:30:22.176Z,28.47
2023-03-29T00:31:22.217Z,28.45
2023-03-29T00:32:22.260Z,29.68
2023-03-29T00:33:22.254Z,27.71
2023-03-29T00:34:22.249Z,29.97
2023-03-29T00:35:22.293Z,28.16
2023-03-29T00:36:22.280Z,29.79
2023-03-29T00:37:22.336Z,28.88
2023-03-29T00:38:22.343Z,31.05
2023-03-29T00:39:22.366Z,28.55
2023-03-29T00:40:22.359Z,30.41
2023-03-29T00:41:22.369Z,29.36
2023-03-29T00:42:22.388Z,27.81
2023-03-29T00:43:22.413Z,28.94
2023-03-29T00:44:22.411Z,29.06
2023-03-29T00:45:22.497Z,27.59
2023-03-29T00:46:22.485Z,25.37
2023-03-29T00:47:22.461Z,28.48
2023-03-29T00:48:22.480Z,28.94
2023-03-29T00:49:22.499Z,30.22
2023-03-29T00:50:22.594Z,30.38
2023-03-29T00:51:22.530Z,26.69
2023-03-29T00:52:22.578Z,28.00
2023-03-29T00:53:22.559Z,30.64
2023-03-29T00:54:22.581Z,30.28
2023-03-29T00:55:22.608Z,29.08
2023-03-29T00:56:22.635Z,28.28
2023-03-29T00:57:22.826Z,31.92
2023-03-29T00:58:22.638Z,28.84
2023-03-29T00:59:22.666Z,29.56
2023-03-29T01:00:22.709Z,32.39
2023-03-29T01:01:22.792Z,29.47
2023-03-29T01:02:22.786Z,25.00
2023-03-29T01:03:22.877Z,28.47
2023-03-29T01:04:22.725Z,31.12
2023-03-29T01:05:22.781Z,29.39
2023-03-29T01:06:22.948Z,25.00
2023-03-29T01:07:22.814Z,29.70
2023-03-29T01:08:22.788Z,26.54
2023-03-29T01:09:22.818Z,30.22
2023-03-29T01:10:22.850Z,27.47
2023-03-29T01:11:22.876Z,26.88
2023-03-29T01:12:22.888Z,30.52
2023-03-29T01:13:22.925Z,28.86
2023-03-29T01:14:22.967Z,30.45
2023-03-29T01:15:22.944Z,31.87
2023-03-29T01:16:22.992Z,27.77
2023-03-29T01:17:22.981Z,29.10
2023-03-29T01:18:23.044Z,28.16
2023-03-29T01:19:23.043Z,30.69
2023-03-29T01:20:23.139Z,32.99
2023-03-29T01:21:23.077Z,31.94
2023-03-29T01:22:23.093Z,31.36
2023-03-29T01:23:23.113Z,30.37
2023-03-29T01:24:23.132Z,31.02
2023-03-29T01:25:23.193Z,33.65
2023-03-29T01:26:23.239Z,30.93
2023-03-29T01:27:23.243Z,33.07
2023-03-29T01:28:23.260Z,31.38
2023-03-29T01:29:23.284Z,32.04
2023-03-29T01:30:23.324Z,33.34
2023-03-29T01:31:23.372Z,31.11
2023-03-29T01:32:23.393Z,29.58
2023-03-29T01:33:23.382Z,29.66
2023-03-29T01:34:23.360Z,30.89
2023-03-29T01:35:23.418Z,30.73
2023-03-29T01:36:23.388Z,32.35
2023-03-29T01:37:23.427Z,33.52
2023-03-29T01:38:23.487Z,30.85
2023-03-29T01:39:23.442Z,34.82
2023-03-29T01:40:23.488Z,29.42
2023-03-29T01:41:23.507Z,32.45
2023-03-29T01:42:23.482Z,34.44
2023-03-29T01:43:23.595Z,30.71
2023-03-29T01:44:23.550Z,33.45
2023-03-29T01:45:23.588Z,29.79
2023-03-29T01:46:23.641Z,32.26
2023-03-29T01:47:23.673Z,30.68
2023-03-29T01:48:23.650Z,29.49
2023-03-29T01:49:23.664Z,28.36
2023-03-29T01:50:23.725Z,29.60
2023-03-29T01:51:23.701Z,32.07
2023-03-29T01:52:23.725Z,31.61
2023-03-29T01:53:23.793Z,28.23
2023-03-29T01:54:23.775Z,31.48
2023-03-29T01:55:23.807Z,33.40
2023-03-29T01:56:23.817Z,30.13
2023-03-29T01:57:23.898Z,31.00
2023-03-29T01:58:23.871Z,31.65
2023-03-29T01:59:23.895Z,30.60
2023-03-29T02:00:23.897Z,33.33
2023-03-29T02:01:23.936Z,29.36
2023-03-29T02:02:23.976Z,29.85
2023-03-29T02:03:24.088Z,29.58
2023-03-29T02:04:24.019Z,30.02
2023-03-29T02:05:24.024Z,33.04
2023-03-29T02:06:24.058Z,29.07
2023-03-29T02:07:24.092Z,32.84
2023-03-29T02:08:24.085Z,29.21
2023-03-29T02:09:24.108Z,32.41
2023-03-29T02:10:24.122Z,31.87
2023-03-29T02:11:24.145Z,31.52
2023-03-29T02:12:24.176Z,30.06
2023-03-29T02:13:24.191Z,29.47
2023-03-29T02:14:24.249Z,31.35
2023-03-29T02:15:24.279Z,27.81
2023-03-29T02:16:24.271Z,31.43
2023-03-29T02:17:24.415Z,31.52
2023-03-29T02:18:24.321Z,28.07
2023-03-29T02:19:24.386Z,29.70
2023-03-29T02:20:24.388Z,29.52
2023-03-29T02:21:24.402Z,30.35
2023-03-29T02:22:24.424Z,30.52
2023-03-29T02:23:24.458Z,28.72
2023-03-29T02:24:24.484Z,32.46
2023-03-29T02:25:24.564Z,29.80
2023-03-29T02:26:24.526Z,30.83
2023-03-29T02:27:24.524Z,26.09
2023-03-29T02:28:24.594Z,30.48
2023-03-29T02:29:24.590Z,32.12
2023-03-29T02:30:24.634Z,26.41
2023-03-29T02:31:24.718Z,27.78
2023-03-29T02:32:24.676Z,30.92
2023-03-29T02:33:24.713Z,32.40
2023-03-29T02:34:24.729Z,29.49
2023-03-29T02:35:24.757Z,28.79
2023-03-29T02:36:24.815Z,28.35
2023-03-29T02:37:24.808Z,30.44
2023-03-29T02:38:24.846Z,31.96
2023-03-29T02:39:24.881Z,30.44
2023-03-29T02:40:24.892Z,30.76
2023-03-29T02:41:24.885Z,25.08
2023-03-29T02:42:24.944Z,28.47
2023-03-29T02:43:25.878Z,29.32
2023-03-29T02:44:25.022Z,27.83
2023-03-29T02:45:24.991Z,27.30
2023-03-29T02:46:25.079Z,31.37
2023-03-29T02:47:25.121Z,28.35
2023-03-29T02:48:25.134Z,30.29
2023-03-29T02:49:25.152Z,26.74
2023-03-29T02:50:25.169Z,29.04
2023-03-29T02:51:25.217Z,27.14
2023-03-29T02:52:25.193Z,28.27
2023-03-29T02:53:25.283Z,29.28
2023-03-29T02:54:25.288Z,27.93
2023-03-29T02:55:25.330Z,29.86
2023-03-29T02:56:25.333Z,29.12
2023-03-29T02:57:25.418Z,30.78
2023-03-29T02:58:25.430Z,29.08
2023-03-29T02:59:25.428Z,30.63
2023-03-29T03:00:25.459Z,29.28
2023-03-29T03:01:25.536Z,30.89
2023-03-29T03:02:25.607Z,28.85
2023-03-29T03:03:25.606Z,27.27
2023-03-29T03:04:25.552Z,30.55
2023-03-29T03:05:25.595Z,29.47
2023-03-29T03:06:25.654Z,31.65
2023-03-29T03:07:25.686Z,31.95
2023-03-29T03:08:25.686Z,29.96
2023-03-29T03:09:25.729Z,29.74
2023-03-29T03:10:25.741Z,30.72
2023-03-29T03:11:25.785Z,26.90
2023-03-29T03:12:25.811Z,27.04
2023-03-29T03:13:25.891Z,29.76
2023-03-29T03:14:25.889Z,29.50
2023-03-29T03:15:25.881Z,28.83
2023-03-29T03:16:25.947Z,28.63
2023-03-29T03:17:25.942Z,30.31
2023-03-29T03:18:25.965Z,30.76
2023-03-29T03:19:25.998Z,30.24
2023-03-29T03:20:26.046Z,27.69
2023-03-29T03:21:26.060Z,28.49
2023-03-29T03:22:26.110Z,27.61
2023-03-29T03:23:26.132Z,30.22
2023-03-29T03:24:26.180Z,27.38
2023-03-29T03:25:26.206Z,29.18
2023-03-29T03:26:26.236Z,29.66
2023-03-29T03:27:26.270Z,29.63
2023-03-29T03:28:26.295Z,27.65
2023-03-29T03:29:26.316Z,27.34
2023-03-29T03:30:26.327Z,28.85
2023-03-29T03:31:26.401Z,27.77
2023-03-29T03:32:26.430Z,31.90
2023-03-29T03:33:26.430Z,28.51
2023-03-29T03:34:26.438Z,31.29
2023-03-29T03:35:26.512Z,28.79
2023-03-29T03:36:26.533Z,30.65
2023-03-29T03:37:26.525Z,28.31
2023-03-29T03:38:26.612Z,26.04
2023-03-29T03:39:26.617Z,25.29
2023-03-29T03:40:28.218Z,26.54
2023-03-29T03:41:26.679Z,31.33
2023-03-29T03:42:26.713Z,29.16
2023-03-29T03:43:26.744Z,27.89
2023-03-29T03:44:26.776Z,27.45
2023-03-29T03:45:26.832Z,27.69
2023-03-29T03:46:28.404Z,27.52
2023-03-29T03:47:26.848Z,30.57
2023-03-29T03:48:26.835Z,26.68
2023-03-29T03:49:26.818Z,27.87
2023-03-29T03:50:26.827Z,29.46
2023-03-29T03:51:26.802Z,27.64
2023-03-29T03:52:26.760Z,28.75
2023-03-29T03:53:26.795Z,27.52
2023-03-29T03:54:26.790Z,27.05
2023-03-29T03:55:26.792Z,26.60
2023-03-29T03:56:26.765Z,29.22
2023-03-29T03:57:26.760Z,28.17
2023-03-29T03:58:26.749Z,28.42
2023-03-29T03:59:26.754Z,31.28
2023-03-29T04:00:26.722Z,28.75
2023-03-29T04:01:26.723Z,26.49
2023-03-29T04:02:26.775Z,29.90
2023-03-29T04:03:26.840Z,29.11
2023-03-29T04:04:26.735Z,29.78
2023-03-29T04:05:26.736Z,28.16
2023-03-29T04:06:27.282Z,27.27
2023-03-29T04:07:26.709Z,31.68
2023-03-29T04:08:26.720Z,28.57
2023-03-29T04:09:26.703Z,29.31
2023-03-29T04:10:26.686Z,28.45
2023-03-29T04:11:26.662Z,24.99
2023-03-29T04:12:26.671Z,29.55
2023-03-29T04:13:26.684Z,30.15
2023-03-29T04:14:26.666Z,31.89
2023-03-29T04:15:26.710Z,30.92
2023-03-29T04:16:26.723Z,30.06
2023-03-29T04:17:26.648Z,30.77
2023-03-29T04:18:26.744Z,31.65
2023-03-29T04:19:26.617Z,30.96
2023-03-29T04:20:26.630Z,28.01
2023-03-29T04:21:26.617Z,30.75
2023-03-29T04:22:26.610Z,32.47
2023-03-29T04:23:26.618Z,30.86
2023-03-29T04:24:26.585Z,28.75
2023-03-29T04:25:26.609Z,28.56
2023-03-29T04:26:26.601Z,30.05
2023-03-29T04:27:26.602Z,31.18
2023-03-29T04:28:26.569Z,25.50
2023-03-29T04:29:26.565Z,28.71
2023-03-29T04:30:26.560Z,29.13
2023-03-29T04:31:26.567Z,31.10
2023-03-29T04:32:26.599Z,27.60
2023-03-29T04:33:26.552Z,27.50
2023-03-29T04:34:26.533Z,29.55
2023-03-29T04:35:26.557Z,28.23
2023-03-29T04:36:26.536Z,28.49
2023-03-29T04:37:26.518Z,31.24
2023-03-29T04:38:26.529Z,31.23
2023-03-29T04:39:26.525Z,26.39
2023-03-29T04:40:26.536Z,30.93
2023-03-29T04:41:26.530Z,29.30
2023-03-29T04:42:26.506Z,27.46
2023-03-29T04:43:26.482Z,29.35
2023-03-29T04:44:26.480Z,29.14
2023-03-29T04:45:26.550Z,30.37
2023-03-29T04:46:26.911Z,25.92
2023-03-29T04:47:26.613Z,27.70
2023-03-29T04:48:26.600Z,29.73
2023-03-29T04:49:26.633Z,26.30
2023-03-29T04:50:26.664Z,27.61
2023-03-29T04:51:26.678Z,28.45
2023-03-29T04:52:26.814Z,27.61
2023-03-29T04:53:26.748Z,28.81
2023-03-29T04:54:26.802Z,32.30
2023-03-29T04:55:26.852Z,27.14
2023-03-29T04:56:26.848Z,31.11
2023-03-29T04:57:26.964Z,30.81
2023-03-29T04:58:30.692Z,31.25
2023-03-29T04:59:27.909Z,31.48
2023-03-29T05:00:33.930Z,31.31
2023-03-29T05:01:26.982Z,31.73
2023-03-29T05:02:26.928Z,32.35
2023-03-29T05:03:26.890Z,33.17
2023-03-29T05:04:26.941Z,31.60
2023-03-29T05:05:26.902Z,31.65
2023-03-29T05:06:26.858Z,32.13
2023-03-29T05:07:26.850Z,33.22
2023-03-29T05:08:26.887Z,31.25
2023-03-29T05:09:26.868Z,28.60
2023-03-29T05:10:26.835Z,31.61
2023-03-29T05:11:26.821Z,30.15
2023-03-29T05:12:26.811Z,32.66
2023-03-29T05:13:26.838Z,30.70
2023-03-29T05:14:26.818Z,30.73
2023-03-29T05:15:26.804Z,31.27
2023-03-29T05:16:26.877Z,32.10
2023-03-29T05:17:26.796Z,31.42
2023-03-29T05:18:26.821Z,33.65
2023-03-29T05:19:26.790Z,31.40
2023-03-29T05:20:26.776Z,33.39
2023-03-29T05:21:26.778Z,31.65
2023-03-29T05:23:45.559Z,25.00
2023-03-29T05:24:45.622Z,25.00
2023-03-29T05:25:45.636Z,25.00
2023-03-29T05:26:45.708Z,25.00
2023-03-29T05:27:45.736Z,25.00
2023-03-29T05:28:45.749Z,26.79
2023-03-29T05:29:45.762Z,28.20
2023-03-29T05:30:45.820Z,29.59
2023-03-29T05:31:45.859Z,30.23
2023-03-29T05:32:45.886Z,29.72
2023-03-29T05:33:45.902Z,40.31
2023-03-29T05:34:45.929Z,50.85
2023-03-29T05:35:46.024Z,55.39
2023-03-29T05:36:46.043Z,55.70
2023-03-29T05:37:46.090Z,57.89
2023-03-29T05:38:46.559Z,54.71
2023-03-29T05:39:46.236Z,55.42
2023-03-29T05:40:46.295Z,48.26
2023-03-29T05:41:46.346Z,54.20
2023-03-29T05:42:46.417Z,44.18
2023-03-29T05:43:46.572Z,53.36
2023-03-29T05:44:46.519Z,34.29
2023-03-29T05:45:53.628Z,30.20
2023-03-29T05:46:46.516Z,30.62
2023-03-29T05:47:46.545Z,31.14
2023-03-29T05:48:46.530Z,31.53
2023-03-29T05:49:46.553Z,35.82
2023-03-29T05:50:46.484Z,41.16
2023-03-29T05:51:46.509Z,48.43
2023-03-29T05:52:46.496Z,49.51
2023-03-29T05:53:46.503Z,55.15
2023-03-29T05:54:46.469Z,58.01
2023-03-29T05:55:46.474Z,59.51
2023-03-29T05:56:46.558Z,65.14
2023-03-29T05:57:46.497Z,64.09
2023-03-29T05:58:46.446Z,71.07
2023-03-29T05:59:46.424Z,74.82
2023-03-29T06:00:46.454Z,76.25
2023-03-29T06:01:46.448Z,78.90
2023-03-29T06:02:46.507Z,90.76
2023-03-29T06:03:46.632Z,89.64
2023-03-29T06:04:46.598Z,92.84
2023-03-29T06:05:49.065Z,99.54
2023-03-29T06:06:46.428Z,94.89
2023-03-29T06:07:46.385Z,104.20
2023-03-29T06:08:46.439Z,107.98
2023-03-29T06:09:46.372Z,97.55
2023-03-29T06:10:46.380Z,108.66
2023-03-29T06:11:46.420Z,98.51
2023-03-29T06:12:46.402Z,96.39
2023-03-29T06:13:47.128Z,96.42
2023-03-29T06:14:46.327Z,108.81
2023-03-29T06:15:46.353Z,105.31
2023-03-29T06:16:46.345Z,86.89
2023-03-29T06:17:46.512Z,99.95
2023-03-29T06:18:46.332Z,102.04
2023-03-29T06:19:46.351Z,95.04
2023-03-29T06:20:46.357Z,98.54
2023-03-29T06:21:46.264Z,97.71
2023-03-29T06:22:46.303Z,100.58
2023-03-29T06:23:46.315Z,98.18
2023-03-29T06:24:46.293Z,94.20
2023-03-29T06:25:46.277Z,93.96
2023-03-29T06:26:46.235Z,104.06
2023-03-29T06:27:46.299Z,103.83
2023-03-29T06:28:46.232Z,102.97
2023-03-29T06:29:46.249Z,106.07
2023-03-29T06:30:46.361Z,100.97
2023-03-29T06:31:46.369Z,111.12
2023-03-29T06:32:46.281Z,100.63
2023-03-29T06:33:46.236Z,114.19
2023-03-29T06:34:46.249Z,105.69
2023-03-29T06:35:46.228Z,90.25
2023-03-29T06:36:46.180Z,74.23
2023-03-29T06:37:46.213Z,79.16
2023-03-29T06:38:46.171Z,94.07
2023-03-29T06:39:46.590Z,105.30
2023-03-29T06:40:46.197Z,113.90
2023-03-29T06:41:46.187Z,120.17
2023-03-29T06:42:46.131Z,128.47
2023-03-29T06:43:46.145Z,140.38
2023-03-29T06:44:46.616Z,149.05
2023-03-29T06:45:46.250Z,150.57
2023-03-29T06:46:46.160Z,149.51
2023-03-29T06:47:46.354Z,133.99
2023-03-29T06:48:46.146Z,114.27
2023-03-29T06:49:46.586Z,126.91
2023-03-29T06:50:46.066Z,123.22
2023-03-29T06:51:46.091Z,120.54
2023-03-29T06:52:46.058Z,130.12
2023-03-29T06:53:46.071Z,114.03
2023-03-29T06:54:46.081Z,121.55
2023-03-29T06:55:46.018Z,120.06
2023-03-29T06:56:46.105Z,119.90
2023-03-29T06:57:46.020Z,125.36
2023-03-29T06:58:46.045Z,119.37
2023-03-29T06:59:46.054Z,118.34
2023-03-29T07:00:46.020Z,117.41
2023-03-29T07:01:46.100Z,118.78
2023-03-29T07:02:46.073Z,113.51
2023-03-29T07:03:46.775Z,104.61
2023-03-29T07:04:46.000Z,108.66
2023-03-29T07:05:45.998Z,110.75
2023-03-29T07:06:45.949Z,115.26
2023-03-29T07:07:45.953Z,117.53
2023-03-29T07:08:45.918Z,117.25
2023-03-29T07:09:45.995Z,117.01
2023-03-29T07:10:45.961Z,116.34
2023-03-29T07:11:45.930Z,113.67
2023-03-29T07:12:45.937Z,115.68
2023-03-29T07:13:45.904Z,116.14
2023-03-29T07:14:46.837Z,105.12
2023-03-29T07:15:45.907Z,114.08
2023-03-29T07:16:45.932Z,113.50
2023-03-29T07:17:45.912Z,112.63
2023-03-29T07:18:45.874Z,109.02
2023-03-29T07:19:45.881Z,111.08
2023-03-29T07:20:45.914Z,109.80
2023-03-29T07:21:45.845Z,105.73
2023-03-29T07:22:45.860Z,110.30
2023-03-29T07:23:45.837Z,106.66
2023-03-29T07:24:45.867Z,108.00
2023-03-29T07:25:45.866Z,108.94
2023-03-29T07:27:45.895Z,103.16
2023-03-29T07:28:45.900Z,106.07
2023-03-29T07:29:45.936Z,103.74
2023-03-29T07:30:45.973Z,106.59
2023-03-29T07:31:45.942Z,103.56
2023-03-29T07:32:46.014Z,109.31
2023-03-29T07:33:46.098Z,104.28
2023-03-29T07:34:46.041Z,103.86
2023-03-29T07:35:46.146Z,104.03
2023-03-29T07:36:46.048Z,104.36
2023-03-29T07:37:46.057Z,104.71
2023-03-29T07:38:46.076Z,104.85
2023-03-29T07:39:46.625Z,102.87
2023-03-29T07:40:46.125Z,101.64
2023-03-29T07:41:46.132Z,87.98
2023-03-29T07:42:46.140Z,95.00
2023-03-29T07:43:46.200Z,90.35
2023-03-29T07:44:46.141Z,100.88
2023-03-29T07:45:46.610Z,108.86
2023-03-29T07:46:46.171Z,107.96
2023-03-29T07:47:46.272Z,108.20
2023-03-29T07:48:46.246Z,113.14
2023-03-29T07:49:46.173Z,119.83
2023-03-29T07:50:46.248Z,121.26
2023-03-29T07:51:46.280Z,111.91
2023-03-29T07:52:46.248Z,113.88
2023-03-29T07:53:46.204Z,116.97
2023-03-29T07:54:46.225Z,102.81
2023-03-29T07:55:47.178Z,103.19
2023-03-29T07:56:46.293Z,106.82
2023-03-29T07:57:46.227Z,92.20
2023-03-29T07:58:46.244Z,93.72
2023-03-29T07:59:46.213Z,100.33
2023-03-29T08:00:46.246Z,106.09
2023-03-29T08:01:46.231Z,105.92
2023-03-29T08:02:46.198Z,105.36
2023-03-29T08:03:46.292Z,99.86
2023-03-29T08:04:46.284Z,86.00
2023-03-29T08:05:46.190Z,107.41
2023-03-29T08:06:46.183Z,113.36
2023-03-29T08:07:46.242Z,116.34
2023-03-29T08:08:46.210Z,105.11
2023-03-29T08:09:46.205Z,106.85
2023-03-29T08:10:46.222Z,107.63
2023-03-29T08:11:46.203Z,97.91
2023-03-29T08:12:46.222Z,105.88
2023-03-29T08:13:46.265Z,112.13
2023-03-29T08:14:46.323Z,110.16
2023-03-29T08:15:46.758Z,115.09
2023-03-29T08:16:46.405Z,116.42
2023-03-29T08:17:46.514Z,98.14
2023-03-29T08:18:46.509Z,106.95
2023-03-29T08:19:50.822Z,112.18
2023-03-29T08:20:46.637Z,110.64
2023-03-29T08:21:46.552Z,107.15
2023-03-29T08:22:46.514Z,103.49
2023-03-29T08:23:46.530Z,108.25
2023-03-29T08:24:46.525Z,112.12
2023-03-29T08:25:46.529Z,113.23
2023-03-29T08:26:46.701Z,114.34
2023-03-29T08:27:46.517Z,101.65
2023-03-29T08:28:46.564Z,110.26
2023-03-29T08:29:46.585Z,104.40
2023-03-29T08:30:46.662Z,119.23
2023-03-29T08:31:46.694Z,117.25
2023-03-29T08:32:50.326Z,131.20
2023-03-29T08:33:46.706Z,130.86
2023-03-29T08:34:46.714Z,132.32
2023-03-29T08:35:46.740Z,134.53
2023-03-29T08:36:46.733Z,135.91
2023-03-29T08:37:46.684Z,134.90
2023-03-29T08:38:46.703Z,155.74
2023-03-29T08:39:46.687Z,143.61
2023-03-29T08:40:46.709Z,140.04
2023-03-29T08:41:46.717Z,149.23
2023-03-29T08:42:46.647Z,151.15
2023-03-29T08:43:46.730Z,144.00
2023-03-29T08:44:46.733Z,146.04
2023-03-29T08:45:49.641Z,134.61
2023-03-29T08:46:46.857Z,135.18
2023-03-29T08:47:46.820Z,135.18
2023-03-29T08:48:46.775Z,138.23
2023-03-29T08:49:46.757Z,142.58
2023-03-29T08:50:46.771Z,142.46
2023-03-29T08:51:46.783Z,145.42
2023-03-29T08:52:46.764Z,161.47
2023-03-29T08:53:46.741Z,148.04
2023-03-29T08:54:46.719Z,137.84
2023-03-29T08:55:47.124Z,121.12
2023-03-29T08:56:46.849Z,129.87
2023-03-29T08:57:46.716Z,129.33
2023-03-29T08:58:46.733Z,130.40
2023-03-29T08:59:46.759Z,157.11
2023-03-29T09:00:47.156Z,167.49
2023-03-29T09:01:48.081Z,160.65
2023-03-29T09:02:46.716Z,171.45
2023-03-29T09:03:46.836Z,159.74
2023-03-29T09:04:46.649Z,148.07
2023-03-29T09:05:46.684Z,159.01
2023-03-29T09:06:46.649Z,162.92
2023-03-29T09:07:46.626Z,153.68
2023-03-29T09:08:46.701Z,156.92
2023-03-29T09:09:46.736Z,175.23
2023-03-29T09:10:47.196Z,165.53
2023-03-29T09:11:46.952Z,165.27
2023-03-29T09:12:46.874Z,187.48
2023-03-29T09:13:46.953Z,181.00
2023-03-29T09:14:46.989Z,186.26
2023-03-29T09:15:47.173Z,171.23
2023-03-29T09:16:47.141Z,156.80
2023-03-29T09:17:49.451Z,166.61
2023-03-29T09:18:47.304Z,169.10
2023-03-29T09:19:47.358Z,177.94
2023-03-29T09:20:47.439Z,180.18
2023-03-29T09:21:47.495Z,174.03
2023-03-29T09:22:47.483Z,187.60
2023-03-29T09:23:47.519Z,184.39
2023-03-29T09:24:47.596Z,164.19
2023-03-29T09:25:53.506Z,190.73
2023-03-29T09:26:48.597Z,190.93
2023-03-29T09:27:47.634Z,191.76
2023-03-29T09:28:47.637Z,193.43
2023-03-29T09:29:47.590Z,194.86
2023-03-29T09:30:47.642Z,199.30
2023-03-29T09:31:47.663Z,199.58
2023-03-29T09:32:47.795Z,205.16
2023-03-29T09:33:47.593Z,205.18
2023-03-29T09:34:47.616Z,206.03
2023-03-29T09:35:47.644Z,205.81
2023-03-29T09:36:47.680Z,208.55
2023-03-29T09:37:47.736Z,205.75
2023-03-29T09:38:47.763Z,204.96
2023-03-29T09:39:47.837Z,207.61
2023-03-29T09:40:47.846Z,208.93
2023-03-29T09:41:48.635Z,209.66
2023-03-29T09:42:47.956Z,208.23
2023-03-29T09:43:48.021Z,208.11
2023-03-29T09:44:48.037Z,206.78
2023-03-29T09:45:48.190Z,206.87
2023-03-29T09:46:48.111Z,202.87
2023-03-29T09:47:48.185Z,201.85
2023-03-29T09:48:48.206Z,202.63
2023-03-29T09:49:48.281Z,200.60
2023-03-29T09:50:48.287Z,198.99
2023-03-29T09:51:48.340Z,200.15
2023-03-29T09:52:48.409Z,199.86
2023-03-29T09:53:48.448Z,198.21
2023-03-29T09:54:48.485Z,196.62
2023-03-29T09:55:50.379Z,195.23
2023-03-29T09:56:48.607Z,194.92
2023-03-29T09:57:48.722Z,194.97
2023-03-29T09:58:48.712Z,196.61
2023-03-29T09:59:48.785Z,192.74
2023-03-29T10:00:48.849Z,191.96
2023-03-29T10:01:48.939Z,191.22
2023-03-29T10:02:48.981Z,191.58
2023-03-29T10:03:49.041Z,188.77
2023-03-29T10:04:48.953Z,190.96
2023-03-29T10:05:49.191Z,189.96
2023-03-29T10:06:49.015Z,189.31
2023-03-29T10:07:49.056Z,189.99
2023-03-29T10:08:49.095Z,185.05
2023-03-29T10:09:49.112Z,185.66
2023-03-29T10:10:49.098Z,188.46
2023-03-29T10:11:49.107Z,182.60
2023-03-29T10:12:49.173Z,185.82
2023-03-29T10:13:49.142Z,182.42
2023-03-29T10:14:51.496Z,177.91
2023-03-29T10:15:49.694Z,181.16
2023-03-29T10:16:49.229Z,181.75
2023-03-29T10:17:49.217Z,324.75
2023-03-29T10:18:49.132Z,227.88
2023-03-29T10:19:49.154Z,194.05
2023-03-29T10:20:49.161Z,200.04
2023-03-29T10:21:49.163Z,207.75
2023-03-29T10:22:49.127Z,216.69
2023-03-29T10:23:49.133Z,210.80
2023-03-29T10:24:49.097Z,205.02
2023-03-29T10:25:49.156Z,196.05
2023-03-29T10:26:49.168Z,190.82
2023-03-29T10:27:49.174Z,189.84
2023-03-29T10:28:49.690Z,186.94
2023-03-29T10:29:49.160Z,182.85
2023-03-29T10:30:49.094Z,180.15
2023-03-29T10:31:49.093Z,177.97
2023-03-29T10:32:49.063Z,174.07
2023-03-29T10:33:49.051Z,175.87
2023-03-29T10:34:49.038Z,175.84
2023-03-29T10:35:49.014Z,176.14
2023-03-29T10:36:49.010Z,170.61
2023-03-29T10:37:48.998Z,170.37
2023-03-29T10:38:49.030Z,168.72
2023-03-29T10:39:49.041Z,167.85
2023-03-29T10:40:48.991Z,166.40
2023-03-29T10:41:48.993Z,166.06
2023-03-29T10:42:48.948Z,167.30
2023-03-29T10:43:48.958Z,164.12
2023-03-29T10:44:48.955Z,162.90
2023-03-29T10:45:49.016Z,161.36
2023-03-29T10:46:48.967Z,162.19
2023-03-29T10:47:49.077Z,157.30
2023-03-29T10:48:48.953Z,159.12
2023-03-29T10:49:50.387Z,158.06
2023-03-29T10:50:48.916Z,160.51
2023-03-29T10:51:48.908Z,157.55
2023-03-29T10:52:48.905Z,157.95
2023-03-29T10:53:48.927Z,157.09
2023-03-29T10:54:48.932Z,156.08
2023-03-29T10:55:48.877Z,156.15
2023-03-29T10:56:50.271Z,155.32
2023-03-29T10:57:48.894Z,154.84
2023-03-29T10:58:48.868Z,151.38
2023-03-29T10:59:48.878Z,153.51
2023-03-29T11:00:48.867Z,153.59
2023-03-29T11:01:48.924Z,152.79
2023-03-29T11:02:48.985Z,148.65
2023-03-29T11:03:48.996Z,151.76
2023-03-29T11:04:48.907Z,149.11
2023-03-29T11:05:48.864Z,147.62
2023-03-29T11:06:48.868Z,148.84
2023-03-29T11:07:48.856Z,148.20
2023-03-29T11:08:48.872Z,147.31
2023-03-29T11:09:48.877Z,146.33
2023-03-29T11:10:48.891Z,145.11
2023-03-29T11:11:48.883Z,143.20
2023-03-29T11:12:48.861Z,143.33
2023-03-29T11:13:48.849Z,142.41
2023-03-29T11:14:48.909Z,142.52
2023-03-29T11:15:48.949Z,141.92
2023-03-29T11:16:48.910Z,143.28
2023-03-29T11:17:48.929Z,141.07
2023-03-29T11:18:48.946Z,138.32
2023-03-29T11:19:48.919Z,139.33
2023-03-29T11:20:48.901Z,139.14
2023-03-29T11:21:48.972Z,138.77
2023-03-29T11:22:48.911Z,137.23
2023-03-29T11:23:48.921Z,134.04
2023-03-29T11:24:48.928Z,136.31
2023-03-29T11:25:49.224Z,132.01
2023-03-29T11:26:48.942Z,133.94
2023-03-29T11:27:48.980Z,129.30
2023-03-29T11:28:49.017Z,131.79
2023-03-29T11:29:49.052Z,130.92
2023-03-29T11:30:49.040Z,130.92
2023-03-29T11:31:49.292Z,133.72
2023-03-29T11:32:49.176Z,128.10
2023-03-29T11:33:49.165Z,126.29
2023-03-29T11:34:49.147Z,127.00
2023-03-29T11:35:49.228Z,128.03
2023-03-29T11:36:49.779Z,125.04
2023-03-29T11:37:49.232Z,125.24
2023-03-29T11:38:49.286Z,123.62
2023-03-29T11:39:49.303Z,123.55
2023-03-29T11:40:49.294Z,125.14
2023-03-29T11:41:49.353Z,126.93
2023-03-29T11:42:49.358Z,122.79
2023-03-29T11:43:49.364Z,121.72
2023-03-29T11:44:49.424Z,120.45
2023-03-29T11:45:49.431Z,124.91
2023-03-29T11:46:49.566Z,120.92
2023-03-29T11:47:49.502Z,122.97
2023-03-29T11:48:49.553Z,123.28
2023-03-29T11:49:49.580Z,121.45
2023-03-29T11:50:49.629Z,122.17
2023-03-29T11:51:49.675Z,120.01
2023-03-29T11:52:49.657Z,118.83
2023-03-29T11:53:49.692Z,121.10
2023-03-29T11:54:49.748Z,121.32
2023-03-29T11:55:49.752Z,118.80
2023-03-29T11:56:49.879Z,118.03
2023-03-29T11:57:49.868Z,118.41
2023-03-29T11:58:49.982Z,120.80
2023-03-29T11:59:49.997Z,119.13
2023-03-29T12:00:50.066Z,117.67
2023-03-29T12:01:50.205Z,119.28
2023-03-29T12:02:50.270Z,118.76
2023-03-29T12:03:50.376Z,116.24
2023-03-29T12:04:50.337Z,114.92
2023-03-29T12:05:50.387Z,117.52
2023-03-29T12:06:50.451Z,116.32
2023-03-29T12:07:50.515Z,117.17
2023-03-29T12:08:50.533Z,117.26
2023-03-29T12:09:50.613Z,115.30
2023-03-29T12:10:50.673Z,114.55
2023-03-29T12:11:50.741Z,114.48
2023-03-29T12:12:50.812Z,116.00
2023-03-29T12:13:50.861Z,113.82
2023-03-29T12:14:50.920Z,111.22
2023-03-29T12:15:50.970Z,112.25
2023-03-29T12:16:51.098Z,111.53
2023-03-29T12:17:51.156Z,111.23
2023-03-29T12:18:51.115Z,110.25
2023-03-29T12:19:51.205Z,109.10
2023-03-29T12:20:51.266Z,109.19
2023-03-29T12:21:51.314Z,110.94
2023-03-29T12:22:51.374Z,108.27
2023-03-29T12:23:51.463Z,107.19
2023-03-29T12:24:51.527Z,107.83
2023-03-29T12:25:51.511Z,104.90
2023-03-29T12:26:51.569Z,106.46
2023-03-29T12:27:51.628Z,107.55
2023-03-29T12:28:51.692Z,107.82
2023-03-29T12:29:51.671Z,104.49
2023-03-29T12:30:51.723Z,105.55
2023-03-29T12:31:51.811Z,106.23
2023-03-29T12:32:51.935Z,108.06
2023-03-29T12:33:51.908Z,105.71
2023-03-29T12:34:51.932Z,104.69
2023-03-29T12:35:51.985Z,106.57
2023-03-29T12:36:52.084Z,104.80
2023-03-29T12:37:52.090Z,105.50
2023-03-29T12:38:52.163Z,106.00
2023-03-29T12:39:52.199Z,104.90
2023-03-29T12:40:52.277Z,105.65
2023-03-29T12:41:52.336Z,104.96
2023-03-29T12:42:52.343Z,106.98